Time;durP1;ratioP1;P1;durP2;ratioP2;P2;SDS_P1;SDS_P2;PMS_P1;PMS_P2;Temp;Humidity;BMP_temperature;BMP_pressure;BME280_temperature;BME280_humidity;BME280_pressure;Samples;Min_cycle;Max_cycle;Signal;HPM_P1;HPM_P2
2022/04/18 00:02:19;;;;;;;5.95;3.97;;;9.50;67.70;;;;;;4953714;29;20055;-85
2022/04/18 00:04:45;;;;;;;9.30;3.83;;;9.50;67.70;;;;;;4938707;29;20490;-85
2022/04/18 00:07:11;;;;;;;7.00;3.90;;;9.40;67.20;;;;;;4955183;28;20031;-85
2022/04/18 00:09:37;;;;;;;5.50;3.50;;;9.40;68.10;;;;;;4955872;29;20106;-86
2022/04/18 00:12:04;;;;;;;5.47;3.55;;;9.30;68.60;;;;;;4938263;29;20062;-86
2022/04/18 00:14:30;;;;;;;6.43;4.25;;;9.30;68.90;;;;;;4956108;29;20027;-88
2022/04/18 00:16:57;;;;;;;9.98;4.60;;;9.40;67.90;;;;;;4955023;29;20134;-85
2022/04/18 00:19:23;;;;;;;6.50;4.30;;;9.40;67.70;;;;;;4955771;29;20027;-86
2022/04/18 00:21:49;;;;;;;5.85;3.80;;;9.30;68.00;;;;;;4955230;29;20426;-86
2022/04/18 00:24:17;;;;;;;7.47;4.10;;;9.20;68.00;;;;;;4955825;29;20031;-85
2022/04/18 00:26:43;;;;;;;6.32;3.97;;;9.10;68.10;;;;;;4955029;29;20041;-85
2022/04/18 00:29:09;;;;;;;5.80;3.72;;;9.00;68.20;;;;;;4937821;29;20603;-85
2022/04/18 00:31:35;;;;;;;8.35;4.05;;;9.10;68.70;;;;;;4954727;29;20054;-87
2022/04/18 00:34:01;;;;;;;5.38;4.22;;;9.20;67.80;;;;;;4955884;29;20033;-86
2022/04/18 00:36:27;;;;;;;7.88;4.05;;;9.30;67.80;;;;;;4954460;29;20023;-86
2022/04/18 00:38:53;;;;;;;7.05;4.20;;;9.30;67.80;;;;;;4955257;29;20629;-86
2022/04/18 00:41:24;;;;;;;6.40;3.92;;;9.40;67.80;;;;;;4954685;29;20035;-84
2022/04/18 00:44:13;;;;;;;5.93;3.70;;;9.30;68.30;;;;;;4946325;29;20394;-86
2022/04/18 00:46:51;;;;;;;4.65;3.60;;;9.30;68.60;;;;;;4954432;29;20275;-85
2022/04/18 00:49:46;;;;;;;8.55;4.47;;;9.20;69.90;;;;;;4952323;28;20070;-83
2022/04/18 00:52:18;;;;;;;6.30;3.88;;;9.10;69.20;;;;;;4928780;29;20479;-86
2022/04/18 00:55:05;;;;;;;7.93;3.60;;;9.00;69.50;;;;;;4954769;29;20023;-86
2022/04/18 00:58:05;;;;;;;6.43;4.05;;;9.00;69.80;;;;;;4938173;29;20032;-84
2022/04/18 01:00:39;;;;;;;7.20;4.47;;;8.80;70.80;;;;;;4942393;29;20038;-84
2022/04/18 01:03:11;;;;;;;5.05;4.28;;;8.80;70.30;;;;;;4945871;29;20039;-86
2022/04/18 01:06:24;;;;;;;8.70;4.05;;;8.80;70.90;;;;;;4926250;29;20030;-85
2022/04/18 01:12:02;;;;;;;4.80;3.85;;;8.60;71.50;;;;;;4939920;29;20043;-85
2022/04/18 01:14:33;;;;;;;6.97;4.07;;;8.70;70.50;;;;;;4933017;29;20036;-84
2022/04/18 01:20:42;;;;;;;7.25;3.95;;;8.80;70.40;;;;;;4930632;29;20626;-85
2022/04/18 01:29:02;;;;;;;5.93;3.70;;;8.90;70.20;;;;;;4951704;29;20558;-85
2022/04/18 01:31:36;;;;;;;7.88;3.78;;;8.90;70.00;;;;;;4936485;29;20027;-86
2022/04/18 01:34:26;;;;;;;7.43;3.97;;;9.00;69.60;;;;;;4936812;29;20035;-85
2022/04/18 01:36:59;;;;;;;5.47;3.58;;;9.00;69.90;;;;;;4952995;29;20035;-86
2022/04/18 01:39:51;;;;;;;4.13;3.42;;;9.00;69.40;;;;;;4954609;29;20078;-86
2022/04/18 01:42:17;;;;;;;4.05;3.38;;;9.00;68.90;;;;;;4932414;29;20050;-85
2022/04/18 01:44:45;;;;;;;6.93;3.95;;;9.20;68.70;;;;;;4948354;29;20031;-85
2022/04/18 01:47:11;;;;;;;6.90;3.75;;;9.20;68.70;;;;;;4953614;29;20031;-86
2022/04/18 01:49:43;;;;;;;6.85;4.57;;;9.20;69.00;;;;;;4936690;29;20078;-84
2022/04/18 01:53:05;;;;;;;5.90;3.88;;;9.30;68.60;;;;;;4952842;29;20491;-86
2022/04/18 01:56:05;;;;;;;8.93;4.75;;;9.30;68.60;;;;;;4928721;29;20118;-87
2022/04/18 01:58:41;;;;;;;6.60;4.50;;;9.40;68.30;;;;;;4947604;29;20636;-89
2022/04/18 02:01:19;;;;;;;7.07;4.35;;;9.30;68.50;;;;;;4953070;28;20482;-87
2022/04/18 02:03:48;;;;;;;8.82;4.07;;;9.30;68.30;;;;;;4936626;29;20433;-87
2022/04/18 02:06:33;;;;;;;7.10;3.90;;;9.30;68.80;;;;;;4936102;28;20035;-87
2022/04/18 02:09:08;;;;;;;8.15;4.38;;;9.30;68.50;;;;;;4953205;29;20172;-88
2022/04/18 02:12:22;;;;;;;5.32;4.10;;;9.30;68.60;;;;;;4935754;29;20118;-88
2022/04/18 02:16:12;;;;;;;;;;;;;;;;;;;;;
2022/04/18 02:18:37;;;;;;;6.78;3.90;;;9.20;69.20;;;;;;4891492;29;20069;-86
2022/04/18 02:22:03;;;;;;;8.00;4.00;;;9.10;69.30;;;;;;4885742;29;20512;-86
2022/04/18 02:25:09;;;;;;;5.15;3.75;;;9.10;68.60;;;;;;4864032;29;20076;-87
2022/04/18 02:28:16;;;;;;;5.75;4.20;;;9.00;69.30;;;;;;4897145;29;20116;-87
2022/04/18 02:31:01;;;;;;;;;;;;;;;;;;;;;
2022/04/18 02:33:30;;;;;;;10.02;4.55;;;8.90;70.20;;;;;;4900281;29;20048;-85
2022/04/18 02:39:28;;;;;;;6.55;4.10;;;8.80;70.30;;;;;;4878029;29;20578;-86
2022/04/18 02:42:17;;;;;;;6.32;4.28;;;8.80;69.20;;;;;;4917345;29;20503;-85
2022/04/18 02:44:52;;;;;;;6.03;3.65;;;8.80;69.50;;;;;;4949242;28;20041;-84
2022/04/18 02:48:05;;;;;;;6.28;3.38;;;8.70;70.30;;;;;;4949244;29;20114;-85
2022/04/18 02:50:24;;;;;;;6.05;3.85;;;8.60;70.80;;;;;;4937915;29;20093;-84
2022/04/18 02:53:27;;;;;;;3.95;3.50;;;8.60;72.10;;;;;;4951595;29;20082;-84
2022/04/18 02:56:01;;;;;;;5.75;3.80;;;8.50;72.60;;;;;;4951584;29;20130;-85
2022/04/18 03:06:24;;;;;;;5.30;3.50;;;8.50;70.80;;;;;;4879312;29;20145;-84
2022/04/18 03:09:15;;;;;;;7.43;4.10;;;8.40;72.20;;;;;;4889444;29;20060;-84
2022/04/18 03:15:24;;;;;;;5.35;3.63;;;8.50;70.70;;;;;;4860287;29;20050;-84
2022/04/18 03:18:26;;;;;;;6.68;3.78;;;8.60;69.70;;;;;;4868753;29;20161;-85
2022/04/18 03:20:58;;;;;;;6.03;4.00;;;8.60;70.30;;;;;;4855782;29;400690;-84
2022/04/18 03:23:26;;;;;;;5.63;3.83;;;8.70;69.00;;;;;;4884896;29;20041;-85
2022/04/18 03:28:57;;;;;;;6.78;3.55;;;9.00;68.60;;;;;;4953817;29;20054;-89
2022/04/18 03:31:29;;;;;;;5.05;3.85;;;8.90;68.70;;;;;;4955769;29;20030;-85
2022/04/18 03:33:54;;;;;;;6.35;3.88;;;9.00;68.80;;;;;;4955470;29;20375;-85
2022/04/18 03:42:02;;;;;;;5.38;3.67;;;8.90;68.30;;;;;;4955250;29;20110;-86
2022/04/18 03:44:28;;;;;;;5.63;3.42;;;8.90;68.20;;;;;;4955380;29;20509;-86
2022/04/18 03:46:53;;;;;;;7.07;3.60;;;8.80;68.60;;;;;;4954469;29;20038;-86
2022/04/18 03:49:20;;;;;;;4.13;3.33;;;8.70;70.30;;;;;;4956546;29;20402;-87
2022/04/18 03:51:46;;;;;;;6.32;4.38;;;8.60;69.50;;;;;;4955591;29;20064;-86
2022/04/18 03:54:12;;;;;;;6.60;4.28;;;8.70;68.90;;;;;;4956617;29;20058;-87
2022/04/18 03:56:37;;;;;;;10.88;4.80;;;8.60;69.70;;;;;;4954585;29;20503;-86
2022/04/18 03:59:48;;;;;;;6.35;4.03;;;8.70;68.60;;;;;;4955325;29;20042;-83
2022/04/18 04:02:14;;;;;;;9.27;3.80;;;8.90;68.60;;;;;;4954556;29;20036;-91
2022/04/18 04:04:41;;;;;;;12.13;3.53;;;9.00;68.00;;;;;;4956023;29;20028;-88
2022/04/18 04:07:06;;;;;;;6.95;3.92;;;9.10;68.80;;;;;;4953281;28;20513;-86
2022/04/18 04:09:34;;;;;;;9.18;4.13;;;9.10;68.50;;;;;;4956352;29;20023;-87
2022/04/18 04:12:42;;;;;;;5.43;3.90;;;9.00;68.50;;;;;;4955216;29;20031;-84
2022/04/18 04:15:09;;;;;;;5.55;4.25;;;8.90;68.60;;;;;;4939903;29;20038;-86
2022/04/18 04:17:35;;;;;;;7.25;4.07;;;8.90;68.20;;;;;;4953225;29;20110;-87
2022/04/18 04:20:01;;;;;;;5.30;3.72;;;8.90;68.90;;;;;;4954287;29;20053;-87
2022/04/18 04:22:27;;;;;;;4.07;3.47;;;9.00;70.60;;;;;;4953763;29;20490;-87
2022/04/18 04:24:52;;;;;;;11.85;4.47;;;8.90;68.70;;;;;;4955240;28;20037;-87
2022/04/18 04:27:18;;;;;;;7.32;4.70;;;8.90;69.00;;;;;;4953682;29;20471;-86
2022/04/18 04:29:44;;;;;;;5.90;3.28;;;8.90;69.00;;;;;;4953125;29;20371;-90
2022/04/18 04:32:09;;;;;;;5.78;3.80;;;8.80;68.90;;;;;;4953718;29;20599;-87
2022/04/18 04:34:35;;;;;;;5.85;3.88;;;8.90;68.60;;;;;;4955481;29;20398;-85
2022/04/18 04:37:01;;;;;;;9.35;4.65;;;9.10;69.30;;;;;;4955175;29;20049;-86
2022/04/18 04:39:26;;;;;;;6.78;4.10;;;9.00;68.80;;;;;;4955560;29;20118;-89
2022/04/18 04:41:52;;;;;;;6.20;4.25;;;8.90;68.50;;;;;;4953415;29;20434;-86
2022/04/18 04:44:18;;;;;;;5.95;4.05;;;8.80;69.20;;;;;;4955438;29;20027;-85
2022/04/18 04:46:45;;;;;;;5.47;4.15;;;8.80;70.60;;;;;;4954286;29;20027;-84
2022/04/18 04:49:22;;;;;;;5.75;4.15;;;8.80;68.70;;;;;;4954039;29;20024;-83
2022/04/18 04:52:20;;;;;;;;;;;;;;;;;;;;;
2022/04/18 04:55:32;;;;;;;;;;;;;;;;;;;;;
2022/04/18 04:57:58;;;;;;;5.22;3.97;;;8.70;71.70;;;;;;4954178;29;20029;-84
2022/04/18 05:00:39;;;;;;;7.05;3.80;;;8.70;69.40;;;;;;4953469;29;20035;-83
2022/04/18 05:03:07;;;;;;;6.05;4.10;;;8.80;69.70;;;;;;4953638;29;20380;-86
2022/04/18 05:05:33;;;;;;;8.68;4.13;;;8.90;69.80;;;;;;4954664;29;20038;-86
2022/04/18 05:07:59;;;;;;;6.47;4.03;;;8.90;70.60;;;;;;4954992;29;20027;-84
2022/04/18 05:10:25;;;;;;;7.60;4.05;;;8.90;69.50;;;;;;4954756;29;20527;-86
2022/04/18 05:12:50;;;;;;;7.80;4.18;;;8.90;69.50;;;;;;4954452;29;20046;-86
2022/04/18 05:15:16;;;;;;;4.65;3.90;;;8.90;70.10;;;;;;4953122;29;20187;-86
2022/04/18 05:17:55;;;;;;;4.53;3.60;;;8.90;70.00;;;;;;4954563;29;20532;-83
2022/04/18 05:20:21;;;;;;;4.60;3.90;;;8.80;70.50;;;;;;4951157;29;20067;-88
2022/04/18 05:22:52;;;;;;;7.53;4.05;;;8.90;70.60;;;;;;4953255;29;20082;-84
2022/04/18 05:25:18;;;;;;;5.37;3.83;;;8.90;71.80;;;;;;4954438;29;20031;-88
2022/04/18 05:27:44;;;;;;;5.75;3.65;;;9.00;71.70;;;;;;4954059;29;20370;-85
2022/04/18 05:30:10;;;;;;;5.95;4.05;;;9.10;69.40;;;;;;4954444;29;20038;-85
2022/04/18 05:32:35;;;;;;;5.68;3.72;;;9.10;69.40;;;;;;4952843;29;20043;-84
2022/04/18 05:35:01;;;;;;;7.55;3.97;;;9.20;69.10;;;;;;4954244;29;20027;-84
2022/04/18 05:37:27;;;;;;;8.82;3.78;;;9.20;69.10;;;;;;4952081;28;20031;-86
2022/04/18 05:39:53;;;;;;;5.43;3.85;;;9.20;70.70;;;;;;4952931;29;20821;-86
2022/04/18 05:42:23;;;;;;;5.88;3.55;;;9.30;70.20;;;;;;4954058;29;20043;-87
2022/04/18 05:44:49;;;;;;;8.63;3.72;;;9.30;70.00;;;;;;4952692;29;20106;-85
2022/04/18 05:47:14;;;;;;;5.70;3.88;;;9.30;69.40;;;;;;4950690;29;20496;-86
2022/04/18 05:49:40;;;;;;;4.97;3.90;;;9.30;70.10;;;;;;4951612;29;20032;-86
2022/04/18 05:52:09;;;;;;;9.80;3.97;;;9.30;70.90;;;;;;4953601;29;20031;-84
2022/04/18 05:54:35;;;;;;;4.95;3.53;;;9.40;72.70;;;;;;4952693;29;20047;-85
2022/04/18 05:57:03;;;;;;;5.03;3.42;;;9.40;70.20;;;;;;4958883;28;20386;-85
2022/04/18 05:59:28;;;;;;;6.28;3.83;;;9.40;70.60;;;;;;4955136;29;20033;-96
2022/04/18 06:02:03;;;;;;;6.60;3.80;;;9.50;71.70;;;;;;4962022;29;20035;-95
2022/04/18 06:04:29;;;;;;;6.32;3.70;;;9.60;69.00;;;;;;4955258;28;20121;-90
2022/04/18 06:06:55;;;;;;;6.50;3.45;;;9.60;69.30;;;;;;4953244;28;20205;-90
2022/04/18 06:09:21;;;;;;;5.25;4.00;;;9.70;69.80;;;;;;4954625;29;20034;-88
2022/04/18 06:11:46;;;;;;;6.20;3.70;;;9.70;69.00;;;;;;4951894;29;20443;-87
2022/04/18 06:14:12;;;;;;;5.72;3.47;;;9.70;69.80;;;;;;4953089;29;20061;-88
2022/04/18 06:16:38;;;;;;;9.75;4.20;;;9.70;68.70;;;;;;4954702;29;20103;-87
2022/04/18 06:19:03;;;;;;;5.63;3.85;;;9.70;69.40;;;;;;4954140;29;20122;-84
2022/04/18 06:21:29;;;;;;;4.38;3.63;;;9.80;68.60;;;;;;4951860;29;20101;-86
2022/04/18 06:23:55;;;;;;;6.07;3.88;;;9.80;69.60;;;;;;4953033;29;20074;-86
2022/04/18 06:26:20;;;;;;;5.03;3.55;;;10.00;69.80;;;;;;4953339;29;20031;-87
2022/04/18 06:28:46;;;;;;;8.18;3.30;;;10.10;71.90;;;;;;4952388;29;20027;-83
2022/04/18 06:31:12;;;;;;;6.95;3.30;;;10.10;72.30;;;;;;4950909;29;20019;-84
2022/04/18 06:33:38;;;;;;;5.07;3.58;;;10.20;70.30;;;;;;4952743;29;20469;-83
2022/04/18 06:36:04;;;;;;;4.30;3.38;;;10.50;68.80;;;;;;4949628;29;20023;-86
2022/04/18 06:38:29;;;;;;;7.03;3.40;;;10.70;69.80;;;;;;4953435;29;20512;-86
2022/04/18 06:40:57;;;;;;;9.20;3.97;;;10.70;68.00;;;;;;4953006;29;20032;-86
2022/04/18 06:43:23;;;;;;;4.38;3.03;;;10.90;71.00;;;;;;4952291;29;20031;-85
2022/04/18 06:45:49;;;;;;;5.40;3.35;;;11.00;69.50;;;;;;4952955;29;20482;-88
2022/04/18 06:48:15;;;;;;;6.57;3.65;;;11.00;72.30;;;;;;4950798;28;20034;-84
2022/04/18 06:50:41;;;;;;;4.35;3.38;;;11.10;68.00;;;;;;4947436;29;20042;-83
2022/04/18 06:53:07;;;;;;;4.30;3.40;;;11.10;67.40;;;;;;4954555;29;20054;-95
2022/04/18 06:58:17;;;;;;;3.88;3.40;;;11.20;67.20;;;;;;4951521;29;20065;-90
2022/04/18 07:00:43;;;;;;;6.53;3.38;;;11.30;67.10;;;;;;4955209;29;20440;-89
2022/04/18 07:03:09;;;;;;;10.10;4.95;;;11.30;65.80;;;;;;4957134;29;20023;-89
2022/04/18 07:05:34;;;;;;;5.25;3.70;;;11.30;66.50;;;;;;4951968;29;20023;-85
2022/04/18 07:08:00;;;;;;;6.38;3.60;;;11.40;66.00;;;;;;4955002;28;20051;-85
2022/04/18 07:10:26;;;;;;;5.90;3.45;;;11.50;66.20;;;;;;4953868;29;20549;-85
2022/04/18 07:12:52;;;;;;;8.30;3.42;;;11.50;66.60;;;;;;4949811;29;20035;-87
2022/04/18 07:15:18;;;;;;;4.60;3.47;;;11.50;65.50;;;;;;4941621;29;20034;-88
2022/04/18 07:17:43;;;;;;;4.85;3.60;;;11.50;65.80;;;;;;4953566;29;20406;-87
2022/04/18 07:20:09;;;;;;;5.82;3.70;;;11.60;67.30;;;;;;4952905;29;20086;-85
2022/04/18 07:22:39;;;;;;;9.23;3.50;;;11.70;65.90;;;;;;4951965;29;20035;-87
2022/04/18 07:25:06;;;;;;;6.13;3.25;;;11.80;64.90;;;;;;4956568;29;20030;-91
2022/04/18 07:27:31;;;;;;;6.07;3.92;;;11.80;65.00;;;;;;4951168;29;20031;-84
2022/04/18 07:29:57;;;;;;;5.68;3.45;;;11.80;65.20;;;;;;4951175;29;20038;-85
2022/04/18 07:32:23;;;;;;;3.90;2.75;;;11.80;65.00;;;;;;4953084;29;20058;-86
2022/04/18 07:34:49;;;;;;;4.88;3.53;;;11.90;66.00;;;;;;4951726;29;20067;-85
2022/04/18 07:37:14;;;;;;;7.75;3.35;;;12.00;65.20;;;;;;4951636;29;20027;-88
2022/04/18 07:39:40;;;;;;;4.60;3.10;;;12.00;64.90;;;;;;4952933;29;20035;-86
2022/04/18 07:42:06;;;;;;;5.80;3.42;;;12.00;65.30;;;;;;4949549;28;20541;-86
2022/04/18 07:44:32;;;;;;;4.72;3.22;;;12.00;64.80;;;;;;4947099;29;20082;-84
2022/04/18 07:46:58;;;;;;;4.95;3.20;;;12.10;63.70;;;;;;4951502;29;20368;-86
2022/04/18 07:49:24;;;;;;;10.07;3.58;;;12.20;64.30;;;;;;4953099;29;20075;-85
2022/04/18 07:51:50;;;;;;;5.40;3.15;;;12.30;64.60;;;;;;4950396;29;20054;-83
2022/04/18 07:54:17;;;;;;;6.20;3.45;;;12.30;63.70;;;;;;4951168;29;20741;-84
2022/04/18 07:56:43;;;;;;;4.13;2.80;;;12.30;64.20;;;;;;4950600;29;20034;-85
2022/04/18 07:59:10;;;;;;;3.60;2.95;;;12.30;64.60;;;;;;4953214;28;20027;-84
2022/04/18 08:01:36;;;;;;;3.83;2.80;;;12.50;63.50;;;;;;4955224;29;20082;-82
2022/04/18 08:04:02;;;;;;;3.90;2.50;;;12.50;63.40;;;;;;4956391;29;20043;-84
2022/04/18 08:06:29;;;;;;;4.22;2.97;;;12.60;63.60;;;;;;4955395;29;20031;-84
2022/04/18 08:08:54;;;;;;;4.75;3.13;;;12.70;66.40;;;;;;4956140;29;20024;-83
2022/04/18 08:11:20;;;;;;;4.25;2.72;;;12.80;64.00;;;;;;4954752;29;20541;-84
2022/04/18 08:13:47;;;;;;;4.80;2.45;;;12.90;64.10;;;;;;4970065;28;20082;-85
2022/04/18 08:16:13;;;;;;;5.15;2.80;;;13.00;64.30;;;;;;4954261;29;20035;-86
2022/04/18 08:18:42;;;;;;;4.70;2.90;;;13.10;64.40;;;;;;4946694;29;20110;-89
2022/04/18 08:21:08;;;;;;;6.18;3.13;;;13.20;63.70;;;;;;4951159;29;20127;-87
2022/04/18 08:23:35;;;;;;;9.88;2.95;;;13.30;62.60;;;;;;4953241;29;20033;-88
2022/04/18 08:26:04;;;;;;;3.55;2.78;;;13.30;62.90;;;;;;4949259;29;20071;-87
2022/04/18 08:28:31;;;;;;;4.32;2.85;;;13.40;62.10;;;;;;4955797;29;20046;-85
2022/04/18 08:30:56;;;;;;;6.90;2.63;;;13.50;61.50;;;;;;4955370;29;20110;-88
2022/04/18 08:33:23;;;;;;;4.03;2.70;;;13.50;64.00;;;;;;4955752;29;20124;-87
2022/04/18 08:35:49;;;;;;;4.22;2.53;;;13.60;61.20;;;;;;4953891;29;20480;-88
2022/04/18 08:38:15;;;;;;;2.53;2.20;;;13.60;61.00;;;;;;4955446;29;20122;-88
2022/04/18 08:40:49;;;;;;;4.10;2.50;;;13.60;61.00;;;;;;4954797;29;20058;-89
2022/04/18 08:43:16;;;;;;;3.35;2.53;;;13.70;61.60;;;;;;4946059;29;20031;-88
2022/04/18 08:45:42;;;;;;;3.55;2.50;;;13.80;61.10;;;;;;4949061;29;20031;-87
2022/04/18 08:53:37;;;;;;;7.25;2.35;;;14.00;59.40;;;;;;4953902;29;20192;-88
2022/04/18 08:56:04;;;;;;;3.83;2.30;;;14.00;60.20;;;;;;4954364;29;20031;-86
2022/04/18 08:58:30;;;;;;;3.47;2.60;;;14.10;61.00;;;;;;4955007;29;20457;-88
2022/04/18 09:00:58;;;;;;;5.03;2.85;;;14.20;60.30;;;;;;4953601;29;20115;-85
2022/04/18 09:03:23;;;;;;;3.40;2.30;;;14.30;58.90;;;;;;4953659;29;20035;-86
2022/04/18 09:05:49;;;;;;;3.50;2.50;;;14.30;59.30;;;;;;4956978;29;20027;-85
2022/04/18 09:08:15;;;;;;;4.50;2.47;;;14.30;60.60;;;;;;4952878;28;20398;-85
2022/04/18 09:10:42;;;;;;;8.35;2.65;;;14.40;60.60;;;;;;4950515;28;20039;-84
2022/04/18 09:13:12;;;;;;;3.83;2.17;;;14.50;59.90;;;;;;4953161;29;20031;-83
2022/04/18 09:15:42;;;;;;;5.82;2.15;;;14.50;59.30;;;;;;4952116;29;20078;-84
2022/04/18 09:18:17;;;;;;;4.25;2.35;;;14.60;58.50;;;;;;4951094;29;20050;-83
2022/04/18 09:20:50;;;;;;;3.28;2.47;;;14.60;59.30;;;;;;4952910;29;20051;-84
2022/04/18 09:23:32;;;;;;;;;;;14.70;59.90;;;;;;4953846;29;20027;-84
2022/04/18 09:26:02;;;;;;;5.43;2.30;;;14.80;59.20;;;;;;4952884;29;19973;-83
2022/04/18 09:28:36;;;;;;;3.35;2.28;;;14.80;57.70;;;;;;4950201;29;20599;-83
2022/04/18 09:31:06;;;;;;;3.90;2.60;;;14.80;60.20;;;;;;4950740;29;20041;-83
2022/04/18 09:33:44;;;;;;;2.90;2.40;;;15.00;58.50;;;;;;4952390;29;20039;-83
2022/04/18 09:36:19;;;;;;;3.35;2.38;;;15.10;58.40;;;;;;4944780;29;20027;-83
2022/04/18 09:38:53;;;;;;;3.95;2.42;;;15.20;57.90;;;;;;4952998;29;20694;-83
2022/04/18 09:41:27;;;;;;;4.30;2.30;;;15.30;58.70;;;;;;4950908;29;20043;-83
2022/04/18 09:43:54;;;;;;;5.93;2.22;;;15.30;58.00;;;;;;4953839;29;20024;-83
2022/04/18 09:46:21;;;;;;;4.28;2.65;;;15.40;57.20;;;;;;4951919;29;20475;-84
2022/04/18 09:48:49;;;;;;;3.55;2.33;;;15.30;57.20;;;;;;4951921;29;20521;-83
2022/04/18 09:51:17;;;;;;;4.40;2.45;;;15.30;56.30;;;;;;4952583;29;20101;-83
2022/04/18 09:53:45;;;;;;;3.20;2.30;;;15.30;57.50;;;;;;4952569;29;20482;-83
2022/04/18 09:56:15;;;;;;;3.75;2.58;;;15.40;57.00;;;;;;4952986;29;20152;-84
2022/04/18 09:58:41;;;;;;;3.75;2.10;;;15.50;57.40;;;;;;4953977;29;20035;-84
2022/04/18 10:01:07;;;;;;;3.05;2.28;;;15.50;57.30;;;;;;4953485;29;20123;-84
2022/04/18 10:03:34;;;;;;;3.47;2.00;;;15.60;57.50;;;;;;4952846;29;20043;-83
2022/04/18 10:06:01;;;;;;;2.92;2.13;;;15.70;57.10;;;;;;4952773;29;20023;-82
2022/04/18 10:08:30;;;;;;;3.97;2.50;;;15.80;57.60;;;;;;4952460;29;20035;-83
2022/04/18 10:10:57;;;;;;;5.22;2.53;;;15.80;56.40;;;;;;4952905;29;20482;-84
2022/04/18 10:13:41;;;;;;;3.78;2.40;;;15.80;56.40;;;;;;4955529;29;20411;-81
2022/04/18 10:16:07;;;;;;;3.13;2.40;;;15.90;57.90;;;;;;4951990;29;20110;-88
2022/04/18 10:18:41;;;;;;;3.88;2.50;;;16.00;56.30;;;;;;4953227;29;20479;-84
2022/04/18 10:21:16;;;;;;;3.55;2.28;;;16.00;55.70;;;;;;4953768;29;20051;-87
2022/04/18 10:24:03;;;;;;;13.98;7.55;;;16.00;55.80;;;;;;4954955;28;20031;-88
2022/04/18 10:27:07;;;;;;;13.07;8.57;;;16.10;58.90;;;;;;4949430;29;20106;-85
2022/04/18 10:29:36;;;;;;;;;;;16.30;58.20;;;;;;4936591;29;20024;-86
2022/04/18 10:32:04;;;;;;;2.85;2.05;;;16.40;57.40;;;;;;4953223;29;19921;-87
2022/04/18 10:34:33;;;;;;;3.15;2.30;;;16.50;55.40;;;;;;4953941;29;20035;-85
2022/04/18 10:37:06;;;;;;;3.05;2.20;;;16.60;55.10;;;;;;4954179;29;20260;-83
2022/04/18 10:39:37;;;;;;;4.55;2.33;;;16.80;57.70;;;;;;4953357;29;20634;-83
2022/04/18 10:42:21;;;;;;;3.47;2.10;;;17.00;56.10;;;;;;4951477;29;20023;-92
2022/04/18 10:45:16;;;;;;;5.93;2.47;;;17.00;57.30;;;;;;4956806;29;20074;-91
2022/04/18 10:48:32;;;;;;;3.90;2.40;;;17.10;56.90;;;;;;4959649;28;20027;-91
2022/04/18 10:51:31;;;;;;;2.70;2.47;;;17.20;56.10;;;;;;4905368;29;20105;-91
2022/04/18 10:54:13;;;;;;;2.40;2.17;;;17.20;55.50;;;;;;4902072;29;20036;-95
2022/04/18 10:56:56;;;;;;;2.63;2.03;;;17.30;54.80;;;;;;4950483;29;20394;-92
2022/04/18 10:59:24;;;;;;;3.75;2.33;;;17.40;54.40;;;;;;4957888;29;20271;-92
2022/04/18 11:01:51;;;;;;;5.18;3.63;;;17.50;53.90;;;;;;4952024;29;20027;-92
2022/04/18 11:04:18;;;;;;;3.28;2.20;;;17.50;53.40;;;;;;4954864;29;20031;-92
2022/04/18 11:06:47;;;;;;;2.38;1.80;;;17.40;51.60;;;;;;4955567;28;20031;-95
2022/04/18 11:09:23;;;;;;;3.00;2.13;;;17.20;51.40;;;;;;4958324;29;20490;-94
2022/04/18 11:11:53;;;;;;;3.33;1.90;;;17.30;53.30;;;;;;4969910;28;20111;-88
2022/04/18 11:14:25;;;;;;;3.95;2.22;;;17.30;51.20;;;;;;4953588;28;20147;-95
2022/04/18 11:17:02;;;;;;;3.20;2.03;;;17.40;53.40;;;;;;4957846;29;20027;-90
2022/04/18 11:19:30;;;;;;;3.38;2.13;;;17.60;53.40;;;;;;4967516;29;20442;-96
2022/04/18 11:21:57;;;;;;;2.38;2.05;;;17.70;54.20;;;;;;4964445;29;20050;-88
2022/04/18 11:24:46;;;;;;;3.63;2.30;;;17.90;53.80;;;;;;4954427;29;20158;-94
2022/04/18 11:27:33;;;;;;;4.00;2.70;;;18.00;53.10;;;;;;4949309;29;20019;-94
2022/04/18 11:30:05;;;;;;;4.75;3.25;;;18.00;52.40;;;;;;4958822;29;20030;-96
2022/04/18 11:32:36;;;;;;;14.80;7.20;;;18.10;52.90;;;;;;4956621;28;20096;-92
2022/04/18 11:35:05;;;;;;;8.65;4.70;;;18.30;52.50;;;;;;4948007;28;20051;-93
2022/04/18 11:37:33;;;;;;;3.72;2.22;;;18.50;51.60;;;;;;4955764;29;20027;-94
2022/04/18 11:40:09;;;;;;;4.18;3.25;;;18.40;51.70;;;;;;4960524;29;20058;-92
2022/04/18 11:42:37;;;;;;;3.22;2.05;;;18.20;51.60;;;;;;4952525;29;20031;-91
2022/04/18 11:45:06;;;;;;;3.92;3.15;;;18.20;52.00;;;;;;4954616;29;20038;-84
2022/04/18 11:47:41;;;;;;;4.18;2.10;;;18.20;52.00;;;;;;4952042;29;20543;-83
2022/04/18 11:50:08;;;;;;;3.10;2.00;;;18.20;51.80;;;;;;4940098;29;20028;-83
2022/04/18 11:52:39;;;;;;;4.05;2.65;;;18.20;51.20;;;;;;4953560;29;20035;-84
2022/04/18 11:55:15;;;;;;;1.77;1.67;;;18.30;52.10;;;;;;4941258;29;20066;-82
2022/04/18 11:57:43;;;;;;;3.83;2.05;;;18.50;51.70;;;;;;4954499;29;20031;-84
2022/04/18 12:00:11;;;;;;;5.82;1.80;;;18.70;51.60;;;;;;4955488;29;20034;-84
2022/04/18 12:08:10;;;;;;;2.92;1.75;;;20.80;49.60;;;;;;4956269;28;20069;-83
2022/04/18 12:10:41;;;;;;;4.20;1.77;;;24.30;45.50;;;;;;4954167;29;20035;-82
2022/04/18 12:13:12;;;;;;;3.05;1.90;;;26.30;43.70;;;;;;4955495;29;20041;-82
2022/04/18 12:15:39;;;;;;;1.90;1.70;;;27.60;41.90;;;;;;4954875;29;20490;-80
2022/04/18 12:18:16;;;;;;;4.10;1.95;;;27.30;42.40;;;;;;4955538;29;20070;-84
2022/04/18 12:20:46;;;;;;;4.50;2.55;;;28.40;42.50;;;;;;4955091;29;20126;-83
2022/04/18 12:23:26;;;;;;;2.20;1.67;;;29.20;40.90;;;;;;4951384;29;20034;-84
2022/04/18 12:25:57;;;;;;;2.17;1.73;;;28.10;39.50;;;;;;4953865;29;20550;-84
2022/04/18 12:28:28;;;;;;;3.25;2.83;;;27.20;40.70;;;;;;4955473;29;20502;-82
2022/04/18 12:30:55;;;;;;;3.65;1.88;;;27.30;41.10;;;;;;4954903;29;20066;-84
2022/04/18 12:33:23;;;;;;;6.88;5.15;;;27.30;40.40;;;;;;4955514;29;20073;-84
2022/04/18 12:35:53;;;;;;;2.08;1.80;;;28.20;42.10;;;;;;4953411;29;20051;-82
2022/04/18 12:38:36;;;;;;;4.57;1.48;;;29.20;39.80;;;;;;4955638;28;20055;-82
2022/04/18 12:41:03;;;;;;;2.45;2.10;;;29.40;39.00;;;;;;4953276;29;20082;-81
2022/04/18 12:43:32;;;;;;;2.17;1.58;;;29.70;39.70;;;;;;4955257;29;20049;-82
2022/04/18 12:46:00;;;;;;;4.13;2.95;;;30.00;39.40;;;;;;4952876;28;20038;-84
2022/04/18 12:48:28;;;;;;;1.40;1.30;;;30.30;41.20;;;;;;4951467;29;20028;-84
2022/04/18 12:50:55;;;;;;;1.88;1.65;;;30.70;38.50;;;;;;4953299;29;20031;-84
2022/04/18 12:53:22;;;;;;;1.75;1.60;;;30.10;38.90;;;;;;4955034;29;20406;-84
2022/04/18 12:56:07;;;;;;;3.22;2.45;;;28.80;38.50;;;;;;4954408;29;20038;-83
2022/04/18 12:58:39;;;;;;;3.58;2.13;;;27.70;41.20;;;;;;4949472;29;20129;-81
2022/04/18 13:01:05;;;;;;;3.63;2.35;;;28.40;39.80;;;;;;4952906;29;20047;-82
2022/04/18 13:03:43;;;;;;;4.45;2.72;;;28.60;40.40;;;;;;4953727;29;20066;-82
2022/04/18 13:06:10;;;;;;;2.50;1.80;;;27.80;40.40;;;;;;4952997;28;20110;-84
2022/04/18 13:08:38;;;;;;;1.73;1.60;;;27.40;39.80;;;;;;4953967;29;20031;-83
2022/04/18 13:11:04;;;;;;;2.08;1.73;;;27.30;39.70;;;;;;4953141;29;20093;-83
2022/04/18 13:13:30;;;;;;;3.47;1.70;;;27.60;39.30;;;;;;4953211;29;20070;-83
2022/04/18 13:15:56;;;;;;;2.45;2.05;;;28.40;40.20;;;;;;4954005;29;20019;-82
2022/04/18 13:18:25;;;;;;;2.65;1.83;;;30.30;39.10;;;;;;4954649;29;20031;-83
2022/04/18 13:20:51;;;;;;;1.40;1.30;;;32.20;38.40;;;;;;4952545;29;20066;-84
2022/04/18 13:23:17;;;;;;;2.15;1.70;;;33.80;37.20;;;;;;4953684;29;20062;-83
2022/04/18 13:25:45;;;;;;;2.35;1.50;;;33.80;36.20;;;;;;4953764;29;20027;-82
2022/04/18 13:28:11;;;;;;;1.80;1.50;;;33.80;35.70;;;;;;4951314;29;20216;-83
2022/04/18 13:30:39;;;;;;;1.83;1.73;;;34.50;35.50;;;;;;4953403;29;20299;-82
2022/04/18 13:33:08;;;;;;;2.85;2.05;;;34.60;35.60;;;;;;4953064;29;20112;-83
2022/04/18 13:38:24;;;;;;;5.47;2.45;;;34.50;35.70;;;;;;4954362;29;20046;-83
2022/04/18 13:40:51;;;;;;;4.57;1.75;;;34.20;35.40;;;;;;4953708;29;20027;-84
2022/04/18 13:43:17;;;;;;;3.72;1.60;;;34.50;35.70;;;;;;4954201;29;20083;-84
2022/04/18 13:45:43;;;;;;;3.70;2.38;;;34.50;35.30;;;;;;4953239;29;20482;-83
2022/04/18 13:48:09;;;;;;;1.63;1.40;;;33.80;36.10;;;;;;4952134;29;20042;-83
2022/04/18 13:50:36;;;;;;;1.40;1.30;;;32.80;34.80;;;;;;4953633;29;20398;-83
2022/04/18 13:53:03;;;;;;;2.65;1.77;;;32.00;35.70;;;;;;4953950;29;20486;-83
2022/04/18 13:55:29;;;;;;;5.90;3.53;;;32.80;36.30;;;;;;4953529;29;20066;-84
2022/04/18 13:57:56;;;;;;;2.75;2.10;;;33.80;36.00;;;;;;4951906;28;20019;-83
2022/04/18 14:00:22;;;;;;;3.85;2.13;;;34.60;35.20;;;;;;4952222;29;20023;-83
2022/04/18 14:02:48;;;;;;;1.65;1.55;;;35.30;33.70;;;;;;4952246;29;20399;-83
2022/04/18 14:05:13;;;;;;;2.47;1.55;;;36.10;33.50;;;;;;4952190;29;20550;-84
2022/04/18 14:07:39;;;;;;;2.65;1.77;;;35.60;35.20;;;;;;4953385;29;20391;-83
2022/04/18 14:10:06;;;;;;;2.58;1.58;;;34.70;35.40;;;;;;4953502;29;20019;-84
2022/04/18 14:12:31;;;;;;;2.80;2.05;;;34.50;36.00;;;;;;4950221;29;20067;-84